sensor_id;sensor_type;location;lat;lon;timestamp;temperature;humidity
11577;DHT22;5844;51.496;6.788;2024-02-23T00:01:43;5.80;1.00
11577;DHT22;5844;51.496;6.788;2024-02-23T00:04:09;6.40;1.00
11577;DHT22;5844;51.496;6.788;2024-02-23T00:06:35;5.90;1.00
11577;DHT22;5844;51.496;6.788;2024-02-23T00:09:01;6.50;1.00
11577;DHT22;5844;51.496;6.788;2024-02-23T00:11:26;5.80;1.00
11577;DHT22;5844;51.496;6.788;2024-02-23T00:13:54;5.70;1.00
11577;DHT22;5844;51.496;6.788;2024-02-23T00:16:19;5.70;1.00
11577;DHT22;5844;51.496;6.788;2024-02-23T00:18:45;5.70;1.00
11577;DHT22;5844;51.496;6.788;2024-02-23T00:21:11;5.70;1.00
11577;DHT22;5844;51.496;6.788;2024-02-23T00:23:37;5.70;1.00
11577;DHT22;5844;51.496;6.788;2024-02-23T00:26:03;5.90;1.00
11577;DHT22;5844;51.496;6.788;2024-02-23T00:28:28;5.70;1.00
11577;DHT22;5844;51.496;6.788;2024-02-23T00:30:54;6.40;1.00
11577;DHT22;5844;51.496;6.788;2024-02-23T00:33:20;5.70;1.00
11577;DHT22;5844;51.496;6.788;2024-02-23T00:35:45;5.70;1.00
11577;DHT22;5844;51.496;6.788;2024-02-23T00:38:11;5.70;1.00
11577;DHT22;5844;51.496;6.788;2024-02-23T00:40:37;6.10;1.00
11577;DHT22;5844;51.496;6.788;2024-02-23T00:43:04;6.40;1.00
11577;DHT22;5844;51.496;6.788;2024-02-23T00:45:30;5.90;1.00
11577;DHT22;5844;51.496;6.788;2024-02-23T00:47:55;5.80;1.00
11577;DHT22;5844;51.496;6.788;2024-02-23T00:50:22;5.90;1.00
11577;DHT22;5844;51.496;6.788;2024-02-23T00:52:51;6.50;1.00
11577;DHT22;5844;51.496;6.788;2024-02-23T00:55:17;6.20;1.00
11577;DHT22;5844;51.496;6.788;2024-02-23T00:57:43;6.00;1.00
11577;DHT22;5844;51.496;6.788;2024-02-23T01:00:10;6.10;1.00
11577;DHT22;5844;51.496;6.788;2024-02-23T01:02:37;6.10;1.00
11577;DHT22;5844;51.496;6.788;2024-02-23T01:05:03;6.30;1.00
11577;DHT22;5844;51.496;6.788;2024-02-23T01:07:29;6.10;1.00
11577;DHT22;5844;51.496;6.788;2024-02-23T01:09:54;6.10;1.00
11577;DHT22;5844;51.496;6.788;2024-02-23T01:12:20;6.00;1.00
11577;DHT22;5844;51.496;6.788;2024-02-23T01:14:45;6.30;1.00
11577;DHT22;5844;51.496;6.788;2024-02-23T01:17:14;6.90;1.00
11577;DHT22;5844;51.496;6.788;2024-02-23T01:19:41;6.10;1.00
11577;DHT22;5844;51.496;6.788;2024-02-23T01:22:06;6.60;1.00
11577;DHT22;5844;51.496;6.788;2024-02-23T01:24:32;6.20;1.00
11577;DHT22;5844;51.496;6.788;2024-02-23T01:26:58;6.20;1.00
11577;DHT22;5844;51.496;6.788;2024-02-23T01:29:25;6.30;1.00
11577;DHT22;5844;51.496;6.788;2024-02-23T01:31:51;6.30;1.00
11577;DHT22;5844;51.496;6.788;2024-02-23T01:34:17;6.30;1.00
11577;DHT22;5844;51.496;6.788;2024-02-23T01:36:43;6.20;1.00
11577;DHT22;5844;51.496;6.788;2024-02-23T01:39:09;6.20;1.00
11577;DHT22;5844;51.496;6.788;2024-02-23T01:41:35;6.50;1.00
11577;DHT22;5844;51.496;6.788;2024-02-23T01:44:01;6.20;1.00
11577;DHT22;5844;51.496;6.788;2024-02-23T01:46:26;6.50;1.00
11577;DHT22;5844;51.496;6.788;2024-02-23T01:48:53;6.10;1.00
11577;DHT22;5844;51.496;6.788;2024-02-23T01:51:19;6.10;1.00
11577;DHT22;5844;51.496;6.788;2024-02-23T01:53:45;6.10;1.00
11577;DHT22;5844;51.496;6.788;2024-02-23T01:56:12;5.90;1.00
11577;DHT22;5844;51.496;6.788;2024-02-23T01:58:43;5.90;1.00
11577;DHT22;5844;51.496;6.788;2024-02-23T02:03:44;6.20;1.00
11577;DHT22;5844;51.496;6.788;2024-02-23T02:06:10;6.30;1.00
11577;DHT22;5844;51.496;6.788;2024-02-23T02:08:37;6.60;1.00
11577;DHT22;5844;51.496;6.788;2024-02-23T02:11:03;6.40;1.00
11577;DHT22;5844;51.496;6.788;2024-02-23T02:13:29;6.40;1.00
11577;DHT22;5844;51.496;6.788;2024-02-23T02:15:56;6.40;1.00
11577;DHT22;5844;51.496;6.788;2024-02-23T02:18:22;7.10;1.00
11577;DHT22;5844;51.496;6.788;2024-02-23T02:20:52;6.50;1.00
11577;DHT22;5844;51.496;6.788;2024-02-23T02:23:19;6.50;1.00
11577;DHT22;5844;51.496;6.788;2024-02-23T02:25:44;6.50;1.00
11577;DHT22;5844;51.496;6.788;2024-02-23T02:28:10;6.60;1.00
11577;DHT22;5844;51.496;6.788;2024-02-23T02:30:36;6.70;1.00
11577;DHT22;5844;51.496;6.788;2024-02-23T02:33:01;6.60;1.00
11577;DHT22;5844;51.496;6.788;2024-02-23T02:35:27;6.60;1.00
11577;DHT22;5844;51.496;6.788;2024-02-23T02:37:52;6.50;1.00
11577;DHT22;5844;51.496;6.788;2024-02-23T02:40:18;6.40;1.00
11577;DHT22;5844;51.496;6.788;2024-02-23T02:42:44;6.30;1.00
11577;DHT22;5844;51.496;6.788;2024-02-23T02:45:09;6.30;1.00
11577;DHT22;5844;51.496;6.788;2024-02-23T02:47:35;6.20;1.00
11577;DHT22;5844;51.496;6.788;2024-02-23T02:50:01;6.20;1.00
11577;DHT22;5844;51.496;6.788;2024-02-23T02:52:27;6.90;1.00
11577;DHT22;5844;51.496;6.788;2024-02-23T02:54:54;7.00;1.00
11577;DHT22;5844;51.496;6.788;2024-02-23T02:57:19;6.20;1.00
11577;DHT22;5844;51.496;6.788;2024-02-23T02:59:45;6.10;1.00
11577;DHT22;5844;51.496;6.788;2024-02-23T03:02:11;6.00;1.00
11577;DHT22;5844;51.496;6.788;2024-02-23T03:04:37;6.10;1.00
11577;DHT22;5844;51.496;6.788;2024-02-23T03:07:03;6.10;1.00
11577;DHT22;5844;51.496;6.788;2024-02-23T03:09:28;6.10;1.00
11577;DHT22;5844;51.496;6.788;2024-02-23T03:11:54;6.10;1.00
11577;DHT22;5844;51.496;6.788;2024-02-23T03:14:20;6.00;1.00
11577;DHT22;5844;51.496;6.788;2024-02-23T03:16:46;6.70;1.00
11577;DHT22;5844;51.496;6.788;2024-02-23T03:19:13;6.70;1.00
11577;DHT22;5844;51.496;6.788;2024-02-23T03:21:38;6.00;1.00
11577;DHT22;5844;51.496;6.788;2024-02-23T03:24:04;6.20;1.00
11577;DHT22;5844;51.496;6.788;2024-02-23T03:26:30;6.00;1.00
11577;DHT22;5844;51.496;6.788;2024-02-23T03:28:55;6.10;1.00
11577;DHT22;5844;51.496;6.788;2024-02-23T03:31:21;6.10;1.00
11577;DHT22;5844;51.496;6.788;2024-02-23T03:33:46;7.10;1.00
11577;DHT22;5844;51.496;6.788;2024-02-23T03:36:12;6.10;1.00
11577;DHT22;5844;51.496;6.788;2024-02-23T03:38:38;6.10;1.00
11577;DHT22;5844;51.496;6.788;2024-02-23T03:41:04;6.10;1.00
11577;DHT22;5844;51.496;6.788;2024-02-23T03:43:29;6.20;1.00
11577;DHT22;5844;51.496;6.788;2024-02-23T03:45:55;6.20;1.00
11577;DHT22;5844;51.496;6.788;2024-02-23T03:48:21;6.20;1.00
11577;DHT22;5844;51.496;6.788;2024-02-23T03:50:46;6.20;1.00
11577;DHT22;5844;51.496;6.788;2024-02-23T03:53:12;6.10;1.00
11577;DHT22;5844;51.496;6.788;2024-02-23T03:55:38;6.20;1.00
11577;DHT22;5844;51.496;6.788;2024-02-23T03:58:03;6.30;1.00
11577;DHT22;5844;51.496;6.788;2024-02-23T04:00:29;6.20;1.00
11577;DHT22;5844;51.496;6.788;2024-02-23T04:02:55;6.30;1.00
11577;DHT22;5844;51.496;6.788;2024-02-23T04:05:20;6.30;1.00
11577;DHT22;5844;51.496;6.788;2024-02-23T04:07:46;6.30;1.00
11577;DHT22;5844;51.496;6.788;2024-02-23T04:10:11;6.40;1.00
11577;DHT22;5844;51.496;6.788;2024-02-23T04:12:42;6.20;1.00
11577;DHT22;5844;51.496;6.788;2024-02-23T04:15:09;6.40;1.00
11577;DHT22;5844;51.496;6.788;2024-02-23T04:17:35;6.30;1.00
11577;DHT22;5844;51.496;6.788;2024-02-23T04:20:06;6.50;1.00
11577;DHT22;5844;51.496;6.788;2024-02-23T04:22:31;6.20;1.00
11577;DHT22;5844;51.496;6.788;2024-02-23T04:24:57;6.30;1.00
11577;DHT22;5844;51.496;6.788;2024-02-23T04:27:23;6.30;1.00
11577;DHT22;5844;51.496;6.788;2024-02-23T04:29:48;6.30;1.00
11577;DHT22;5844;51.496;6.788;2024-02-23T04:32:14;6.50;1.00
11577;DHT22;5844;51.496;6.788;2024-02-23T04:34:40;6.60;1.00
11577;DHT22;5844;51.496;6.788;2024-02-23T04:37:06;6.40;1.00
11577;DHT22;5844;51.496;6.788;2024-02-23T04:39:32;6.50;1.00
11577;DHT22;5844;51.496;6.788;2024-02-23T04:41:58;6.70;1.00
11577;DHT22;5844;51.496;6.788;2024-02-23T04:44:23;6.40;1.00
11577;DHT22;5844;51.496;6.788;2024-02-23T04:46:49;6.60;1.00
11577;DHT22;5844;51.496;6.788;2024-02-23T04:49:15;6.80;1.00
11577;DHT22;5844;51.496;6.788;2024-02-23T04:51:40;6.50;1.00
11577;DHT22;5844;51.496;6.788;2024-02-23T04:54:06;6.50;1.00
11577;DHT22;5844;51.496;6.788;2024-02-23T04:56:32;6.90;1.00
11577;DHT22;5844;51.496;6.788;2024-02-23T04:58:59;6.50;1.00
11577;DHT22;5844;51.496;6.788;2024-02-23T05:01:24;6.50;1.00
11577;DHT22;5844;51.496;6.788;2024-02-23T05:07:12;6.40;1.00
11577;DHT22;5844;51.496;6.788;2024-02-23T05:09:38;6.40;1.00
11577;DHT22;5844;51.496;6.788;2024-02-23T05:12:07;6.40;1.00
11577;DHT22;5844;51.496;6.788;2024-02-23T05:14:32;6.40;1.00
11577;DHT22;5844;51.496;6.788;2024-02-23T05:16:58;6.80;1.00
11577;DHT22;5844;51.496;6.788;2024-02-23T05:19:24;6.70;1.00
11577;DHT22;5844;51.496;6.788;2024-02-23T05:21:49;6.60;1.00
11577;DHT22;5844;51.496;6.788;2024-02-23T05:24:15;6.40;1.00
11577;DHT22;5844;51.496;6.788;2024-02-23T05:26:41;6.50;1.00
11577;DHT22;5844;51.496;6.788;2024-02-23T05:29:07;6.40;1.00
11577;DHT22;5844;51.496;6.788;2024-02-23T05:31:51;6.50;1.00
11577;DHT22;5844;51.496;6.788;2024-02-23T05:34:17;6.40;1.00
11577;DHT22;5844;51.496;6.788;2024-02-23T05:36:44;6.50;1.00
11577;DHT22;5844;51.496;6.788;2024-02-23T05:39:11;6.60;1.00
11577;DHT22;5844;51.496;6.788;2024-02-23T05:41:44;6.50;1.00
11577;DHT22;5844;51.496;6.788;2024-02-23T05:44:10;6.50;1.00
11577;DHT22;5844;51.496;6.788;2024-02-23T05:46:36;6.50;1.00
11577;DHT22;5844;51.496;6.788;2024-02-23T05:49:03;6.60;1.00
11577;DHT22;5844;51.496;6.788;2024-02-23T05:51:31;6.70;1.00
11577;DHT22;5844;51.496;6.788;2024-02-23T05:53:58;6.70;1.00
11577;DHT22;5844;51.496;6.788;2024-02-23T05:56:24;6.60;1.00
11577;DHT22;5844;51.496;6.788;2024-02-23T05:58:53;6.50;1.00
11577;DHT22;5844;51.496;6.788;2024-02-23T06:01:19;6.50;1.00
11577;DHT22;5844;51.496;6.788;2024-02-23T06:03:45;6.60;1.00
11577;DHT22;5844;51.496;6.788;2024-02-23T06:06:11;6.50;1.00
11577;DHT22;5844;51.496;6.788;2024-02-23T06:08:37;6.50;1.00
11577;DHT22;5844;51.496;6.788;2024-02-23T06:11:03;6.50;1.00
11577;DHT22;5844;51.496;6.788;2024-02-23T06:13:32;6.50;1.00
11577;DHT22;5844;51.496;6.788;2024-02-23T06:15:59;6.50;1.00
11577;DHT22;5844;51.496;6.788;2024-02-23T06:18:25;6.60;1.00
11577;DHT22;5844;51.496;6.788;2024-02-23T06:20:50;6.50;1.00
11577;DHT22;5844;51.496;6.788;2024-02-23T06:23:17;6.60;1.00
11577;DHT22;5844;51.496;6.788;2024-02-23T06:25:43;6.70;1.00
11577;DHT22;5844;51.496;6.788;2024-02-23T06:28:11;6.60;1.00
11577;DHT22;5844;51.496;6.788;2024-02-23T06:30:37;6.60;1.00
11577;DHT22;5844;51.496;6.788;2024-02-23T06:33:03;6.60;1.00
11577;DHT22;5844;51.496;6.788;2024-02-23T06:35:29;6.60;1.00
11577;DHT22;5844;51.496;6.788;2024-02-23T06:37:55;7.00;1.00
11577;DHT22;5844;51.496;6.788;2024-02-23T06:40:21;6.60;1.00
11577;DHT22;5844;51.496;6.788;2024-02-23T06:42:46;7.00;1.00
11577;DHT22;5844;51.496;6.788;2024-02-23T06:45:12;6.70;1.00
11577;DHT22;5844;51.496;6.788;2024-02-23T06:47:37;6.60;1.00
11577;DHT22;5844;51.496;6.788;2024-02-23T06:50:06;6.60;1.00
11577;DHT22;5844;51.496;6.788;2024-02-23T06:52:32;6.60;1.00
11577;DHT22;5844;51.496;6.788;2024-02-23T06:54:58;6.60;1.00
11577;DHT22;5844;51.496;6.788;2024-02-23T06:57:24;6.60;1.00
11577;DHT22;5844;51.496;6.788;2024-02-23T06:59:51;6.70;1.00
11577;DHT22;5844;51.496;6.788;2024-02-23T07:02:17;6.70;1.00
11577;DHT22;5844;51.496;6.788;2024-02-23T07:04:42;6.80;1.00
11577;DHT22;5844;51.496;6.788;2024-02-23T07:07:08;7.60;1.00
11577;DHT22;5844;51.496;6.788;2024-02-23T07:09:34;6.90;1.00
11577;DHT22;5844;51.496;6.788;2024-02-23T07:12:00;7.00;1.00
11577;DHT22;5844;51.496;6.788;2024-02-23T07:14:26;7.10;1.00
11577;DHT22;5844;51.496;6.788;2024-02-23T07:16:52;7.00;1.00
11577;DHT22;5844;51.496;6.788;2024-02-23T07:19:18;7.40;1.00
11577;DHT22;5844;51.496;6.788;2024-02-23T07:21:45;7.00;1.00
11577;DHT22;5844;51.496;6.788;2024-02-23T07:24:11;7.00;1.00
11577;DHT22;5844;51.496;6.788;2024-02-23T07:26:37;7.10;1.00
11577;DHT22;5844;51.496;6.788;2024-02-23T07:29:02;7.30;1.00
11577;DHT22;5844;51.496;6.788;2024-02-23T07:31:28;7.10;1.00
11577;DHT22;5844;51.496;6.788;2024-02-23T07:33:54;7.20;1.00
11577;DHT22;5844;51.496;6.788;2024-02-23T07:36:19;7.20;1.00
11577;DHT22;5844;51.496;6.788;2024-02-23T07:38:45;7.30;1.00
11577;DHT22;5844;51.496;6.788;2024-02-23T07:41:11;7.30;1.00
11577;DHT22;5844;51.496;6.788;2024-02-23T07:43:38;7.40;1.00
11577;DHT22;5844;51.496;6.788;2024-02-23T07:46:04;7.60;1.00
11577;DHT22;5844;51.496;6.788;2024-02-23T07:48:30;7.50;1.00
11577;DHT22;5844;51.496;6.788;2024-02-23T07:50:56;7.40;1.00
11577;DHT22;5844;51.496;6.788;2024-02-23T07:53:21;7.40;1.00
11577;DHT22;5844;51.496;6.788;2024-02-23T07:55:47;7.50;1.00
11577;DHT22;5844;51.496;6.788;2024-02-23T07:58:13;7.50;1.00
11577;DHT22;5844;51.496;6.788;2024-02-23T08:00:38;7.60;1.00
11577;DHT22;5844;51.496;6.788;2024-02-23T08:03:04;7.60;1.00
11577;DHT22;5844;51.496;6.788;2024-02-23T08:05:30;7.50;1.00
11577;DHT22;5844;51.496;6.788;2024-02-23T08:07:56;7.50;1.00
11577;DHT22;5844;51.496;6.788;2024-02-23T08:10:21;7.60;1.00
11577;DHT22;5844;51.496;6.788;2024-02-23T08:12:47;7.60;1.00
11577;DHT22;5844;51.496;6.788;2024-02-23T08:15:13;7.70;1.00
11577;DHT22;5844;51.496;6.788;2024-02-23T08:17:39;7.70;1.00
11577;DHT22;5844;51.496;6.788;2024-02-23T08:20:05;7.70;1.00
11577;DHT22;5844;51.496;6.788;2024-02-23T08:22:30;7.70;1.00
11577;DHT22;5844;51.496;6.788;2024-02-23T08:24:56;7.70;1.00
11577;DHT22;5844;51.496;6.788;2024-02-23T08:27:22;7.70;1.00
11577;DHT22;5844;51.496;6.788;2024-02-23T08:29:48;8.20;1.00
11577;DHT22;5844;51.496;6.788;2024-02-23T08:32:13;8.00;1.00
11577;DHT22;5844;51.496;6.788;2024-02-23T08:34:39;8.10;1.00
11577;DHT22;5844;51.496;6.788;2024-02-23T08:37:05;8.20;1.00
11577;DHT22;5844;51.496;6.788;2024-02-23T08:39:30;8.10;1.00
11577;DHT22;5844;51.496;6.788;2024-02-23T08:41:56;8.20;1.00
11577;DHT22;5844;51.496;6.788;2024-02-23T08:44:22;8.50;1.00
11577;DHT22;5844;51.496;6.788;2024-02-23T08:46:47;8.40;1.00
11577;DHT22;5844;51.496;6.788;2024-02-23T08:49:14;8.50;1.00
11577;DHT22;5844;51.496;6.788;2024-02-23T08:51:40;8.70;1.00
11577;DHT22;5844;51.496;6.788;2024-02-23T08:54:06;8.40;1.00
11577;DHT22;5844;51.496;6.788;2024-02-23T08:56:37;8.30;1.00
11577;DHT22;5844;51.496;6.788;2024-02-23T08:59:04;8.30;1.00
11577;DHT22;5844;51.496;6.788;2024-02-23T09:01:30;8.20;1.00
11577;DHT22;5844;51.496;6.788;2024-02-23T09:03:55;8.30;1.00
11577;DHT22;5844;51.496;6.788;2024-02-23T09:06:21;8.40;1.00
11577;DHT22;5844;51.496;6.788;2024-02-23T09:08:46;8.20;1.00
11577;DHT22;5844;51.496;6.788;2024-02-23T09:11:12;8.20;1.00
11577;DHT22;5844;51.496;6.788;2024-02-23T09:13:39;8.40;1.00
11577;DHT22;5844;51.496;6.788;2024-02-23T09:16:07;8.40;1.00
11577;DHT22;5844;51.496;6.788;2024-02-23T09:18:32;8.40;1.00
11577;DHT22;5844;51.496;6.788;2024-02-23T09:20:59;8.20;1.00
11577;DHT22;5844;51.496;6.788;2024-02-23T09:23:25;8.20;1.00
11577;DHT22;5844;51.496;6.788;2024-02-23T09:25:50;8.40;1.00
11577;DHT22;5844;51.496;6.788;2024-02-23T09:28:16;8.40;1.00
11577;DHT22;5844;51.496;6.788;2024-02-23T09:30:42;8.70;1.00
11577;DHT22;5844;51.496;6.788;2024-02-23T09:33:07;8.70;1.00
11577;DHT22;5844;51.496;6.788;2024-02-23T09:35:33;8.60;1.00
11577;DHT22;5844;51.496;6.788;2024-02-23T09:37:59;8.40;1.00
11577;DHT22;5844;51.496;6.788;2024-02-23T09:40:25;8.40;1.00
11577;DHT22;5844;51.496;6.788;2024-02-23T09:43:25;8.30;1.00
11577;DHT22;5844;51.496;6.788;2024-02-23T09:45:54;8.20;1.00
11577;DHT22;5844;51.496;6.788;2024-02-23T09:48:21;8.30;1.00
11577;DHT22;5844;51.496;6.788;2024-02-23T09:50:47;8.20;1.00
11577;DHT22;5844;51.496;6.788;2024-02-23T09:53:13;8.30;1.00
11577;DHT22;5844;51.496;6.788;2024-02-23T09:55:39;8.30;1.00
11577;DHT22;5844;51.496;6.788;2024-02-23T09:58:06;8.30;1.00
11577;DHT22;5844;51.496;6.788;2024-02-23T10:00:35;8.40;1.00
11577;DHT22;5844;51.496;6.788;2024-02-23T10:03:02;8.40;1.00
11577;DHT22;5844;51.496;6.788;2024-02-23T10:05:30;8.60;1.00
11577;DHT22;5844;51.496;6.788;2024-02-23T10:07:59;8.60;1.00
11577;DHT22;5844;51.496;6.788;2024-02-23T10:10:29;8.70;1.00
11577;DHT22;5844;51.496;6.788;2024-02-23T10:12:57;8.70;1.00
11577;DHT22;5844;51.496;6.788;2024-02-23T10:15:23;8.70;1.00
11577;DHT22;5844;51.496;6.788;2024-02-23T10:17:48;8.70;1.00
11577;DHT22;5844;51.496;6.788;2024-02-23T10:20:14;8.70;1.00
11577;DHT22;5844;51.496;6.788;2024-02-23T10:22:40;8.60;1.00
11577;DHT22;5844;51.496;6.788;2024-02-23T10:25:05;8.50;1.00
11577;DHT22;5844;51.496;6.788;2024-02-23T10:27:32;8.50;1.00
11577;DHT22;5844;51.496;6.788;2024-02-23T10:29:58;8.50;1.00
11577;DHT22;5844;51.496;6.788;2024-02-23T10:32:25;8.60;1.00
11577;DHT22;5844;51.496;6.788;2024-02-23T10:34:53;8.60;1.00
11577;DHT22;5844;51.496;6.788;2024-02-23T10:37:22;8.70;1.00
11577;DHT22;5844;51.496;6.788;2024-02-23T10:39:51;8.80;1.00
11577;DHT22;5844;51.496;6.788;2024-02-23T10:42:22;8.70;1.00
11577;DHT22;5844;51.496;6.788;2024-02-23T10:44:50;8.70;1.00
11577;DHT22;5844;51.496;6.788;2024-02-23T10:47:16;8.60;1.00
11577;DHT22;5844;51.496;6.788;2024-02-23T10:49:42;8.70;1.00
11577;DHT22;5844;51.496;6.788;2024-02-23T10:52:09;8.50;1.00
11577;DHT22;5844;51.496;6.788;2024-02-23T10:54:38;8.60;1.00
11577;DHT22;5844;51.496;6.788;2024-02-23T10:57:04;8.60;1.00
11577;DHT22;5844;51.496;6.788;2024-02-23T10:59:30;8.60;1.00
11577;DHT22;5844;51.496;6.788;2024-02-23T11:01:57;8.70;1.00
11577;DHT22;5844;51.496;6.788;2024-02-23T11:04:26;8.70;1.00
11577;DHT22;5844;51.496;6.788;2024-02-23T11:06:54;8.70;1.00
11577;DHT22;5844;51.496;6.788;2024-02-23T11:09:22;8.70;1.00
11577;DHT22;5844;51.496;6.788;2024-02-23T11:11:55;8.80;1.00
11577;DHT22;5844;51.496;6.788;2024-02-23T11:14:37;8.80;1.00
11577;DHT22;5844;51.496;6.788;2024-02-23T11:17:03;8.70;1.00
11577;DHT22;5844;51.496;6.788;2024-02-23T11:19:37;8.70;1.00
11577;DHT22;5844;51.496;6.788;2024-02-23T11:22:03;8.70;1.00
11577;DHT22;5844;51.496;6.788;2024-02-23T11:24:30;8.80;1.00
11577;DHT22;5844;51.496;6.788;2024-02-23T11:26:59;8.90;1.00
11577;DHT22;5844;51.496;6.788;2024-02-23T11:29:29;8.80;1.00
11577;DHT22;5844;51.496;6.788;2024-02-23T11:31:55;8.80;1.00
11577;DHT22;5844;51.496;6.788;2024-02-23T11:34:27;8.80;1.00
11577;DHT22;5844;51.496;6.788;2024-02-23T11:36:53;8.80;1.00
11577;DHT22;5844;51.496;6.788;2024-02-23T11:39:19;8.80;1.00
11577;DHT22;5844;51.496;6.788;2024-02-23T11:41:48;8.80;1.00
11577;DHT22;5844;51.496;6.788;2024-02-23T11:44:14;8.80;1.00
11577;DHT22;5844;51.496;6.788;2024-02-23T11:46:43;8.80;1.00
11577;DHT22;5844;51.496;6.788;2024-02-23T11:49:08;8.70;1.00
11577;DHT22;5844;51.496;6.788;2024-02-23T11:51:35;8.80;1.00
11577;DHT22;5844;51.496;6.788;2024-02-23T11:54:01;8.80;1.00
11577;DHT22;5844;51.496;6.788;2024-02-23T11:56:26;8.80;1.00
11577;DHT22;5844;51.496;6.788;2024-02-23T11:58:54;8.90;1.00
11577;DHT22;5844;51.496;6.788;2024-02-23T12:01:21;8.90;1.00
11577;DHT22;5844;51.496;6.788;2024-02-23T12:03:46;8.90;1.00
11577;DHT22;5844;51.496;6.788;2024-02-23T12:06:14;8.90;1.00
11577;DHT22;5844;51.496;6.788;2024-02-23T12:08:41;8.90;1.00
11577;DHT22;5844;51.496;6.788;2024-02-23T12:11:07;9.00;1.00
11577;DHT22;5844;51.496;6.788;2024-02-23T12:13:36;9.10;1.00
11577;DHT22;5844;51.496;6.788;2024-02-23T12:16:02;9.30;1.00
11577;DHT22;5844;51.496;6.788;2024-02-23T12:18:28;9.40;1.00
11577;DHT22;5844;51.496;6.788;2024-02-23T12:21:01;9.80;1.00
11577;DHT22;5844;51.496;6.788;2024-02-23T12:23:37;9.60;1.00
11577;DHT22;5844;51.496;6.788;2024-02-23T12:26:03;9.70;1.00
11577;DHT22;5844;51.496;6.788;2024-02-23T12:28:29;9.50;1.00
11577;DHT22;5844;51.496;6.788;2024-02-23T12:31:03;9.50;1.00
11577;DHT22;5844;51.496;6.788;2024-02-23T12:33:30;9.40;1.00
11577;DHT22;5844;51.496;6.788;2024-02-23T12:35:58;9.50;1.00
11577;DHT22;5844;51.496;6.788;2024-02-23T12:38:24;9.50;1.00
11577;DHT22;5844;51.496;6.788;2024-02-23T12:40:50;9.40;1.00
11577;DHT22;5844;51.496;6.788;2024-02-23T12:43:16;9.30;1.00
11577;DHT22;5844;51.496;6.788;2024-02-23T12:45:42;9.40;1.00
11577;DHT22;5844;51.496;6.788;2024-02-23T12:48:10;9.40;1.00
11577;DHT22;5844;51.496;6.788;2024-02-23T12:50:36;9.40;1.00
11577;DHT22;5844;51.496;6.788;2024-02-23T12:53:02;9.40;1.00
11577;DHT22;5844;51.496;6.788;2024-02-23T12:55:29;9.40;1.00
11577;DHT22;5844;51.496;6.788;2024-02-23T12:57:54;9.50;1.00
11577;DHT22;5844;51.496;6.788;2024-02-23T13:00:20;9.60;1.00
11577;DHT22;5844;51.496;6.788;2024-02-23T13:02:46;9.70;1.00
11577;DHT22;5844;51.496;6.788;2024-02-23T13:05:11;9.70;1.00
11577;DHT22;5844;51.496;6.788;2024-02-23T13:07:37;9.60;1.00
11577;DHT22;5844;51.496;6.788;2024-02-23T13:10:06;9.50;1.00
11577;DHT22;5844;51.496;6.788;2024-02-23T13:12:32;9.50;1.00
11577;DHT22;5844;51.496;6.788;2024-02-23T13:14:58;9.40;1.00
11577;DHT22;5844;51.496;6.788;2024-02-23T13:17:24;9.50;1.00
11577;DHT22;5844;51.496;6.788;2024-02-23T13:19:49;9.40;1.00
11577;DHT22;5844;51.496;6.788;2024-02-23T13:22:15;9.50;1.00
11577;DHT22;5844;51.496;6.788;2024-02-23T13:24:40;9.60;1.00
11577;DHT22;5844;51.496;6.788;2024-02-23T13:27:06;9.50;1.00
11577;DHT22;5844;51.496;6.788;2024-02-23T13:29:32;9.60;1.00
11577;DHT22;5844;51.496;6.788;2024-02-23T13:31:57;9.70;1.00
11577;DHT22;5844;51.496;6.788;2024-02-23T13:34:23;9.90;1.00
11577;DHT22;5844;51.496;6.788;2024-02-23T13:36:49;9.80;1.00
11577;DHT22;5844;51.496;6.788;2024-02-23T13:39:15;9.80;1.00
11577;DHT22;5844;51.496;6.788;2024-02-23T13:41:41;9.80;1.00
11577;DHT22;5844;51.496;6.788;2024-02-23T13:44:07;9.70;1.00
11577;DHT22;5844;51.496;6.788;2024-02-23T13:46:37;9.70;1.00
11577;DHT22;5844;51.496;6.788;2024-02-23T13:49:05;9.60;1.00
11577;DHT22;5844;51.496;6.788;2024-02-23T13:51:33;9.50;1.00
11577;DHT22;5844;51.496;6.788;2024-02-23T13:53:59;9.50;1.00
11577;DHT22;5844;51.496;6.788;2024-02-23T13:56:25;9.50;1.00
11577;DHT22;5844;51.496;6.788;2024-02-23T13:58:50;9.50;1.00
11577;DHT22;5844;51.496;6.788;2024-02-23T14:01:16;9.50;1.00
11577;DHT22;5844;51.496;6.788;2024-02-23T14:03:42;9.50;1.00
11577;DHT22;5844;51.496;6.788;2024-02-23T14:06:08;9.50;1.00
11577;DHT22;5844;51.496;6.788;2024-02-23T14:08:34;9.70;1.00
11577;DHT22;5844;51.496;6.788;2024-02-23T14:11:01;9.70;1.00
11577;DHT22;5844;51.496;6.788;2024-02-23T14:13:26;9.70;1.00
11577;DHT22;5844;51.496;6.788;2024-02-23T14:15:52;9.70;1.00
11577;DHT22;5844;51.496;6.788;2024-02-23T14:18:19;9.70;1.00
11577;DHT22;5844;51.496;6.788;2024-02-23T14:20:45;9.70;1.00
11577;DHT22;5844;51.496;6.788;2024-02-23T14:23:10;9.70;1.00
11577;DHT22;5844;51.496;6.788;2024-02-23T14:25:36;9.80;1.00
11577;DHT22;5844;51.496;6.788;2024-02-23T14:28:02;9.70;1.00
11577;DHT22;5844;51.496;6.788;2024-02-23T14:30:27;9.80;1.00
11577;DHT22;5844;51.496;6.788;2024-02-23T14:32:53;9.80;1.00
11577;DHT22;5844;51.496;6.788;2024-02-23T14:35:18;9.90;1.00
11577;DHT22;5844;51.496;6.788;2024-02-23T14:37:44;10.00;1.00
11577;DHT22;5844;51.496;6.788;2024-02-23T14:40:10;9.90;1.00
11577;DHT22;5844;51.496;6.788;2024-02-23T14:42:37;9.90;1.00
11577;DHT22;5844;51.496;6.788;2024-02-23T14:45:04;10.00;1.00
11577;DHT22;5844;51.496;6.788;2024-02-23T14:47:30;10.00;1.00
11577;DHT22;5844;51.496;6.788;2024-02-23T14:49:55;9.90;1.00
11577;DHT22;5844;51.496;6.788;2024-02-23T14:52:21;10.30;1.00
11577;DHT22;5844;51.496;6.788;2024-02-23T14:54:46;10.30;1.00
11577;DHT22;5844;51.496;6.788;2024-02-23T14:57:12;10.20;1.00
11577;DHT22;5844;51.496;6.788;2024-02-23T14:59:39;10.20;1.00
11577;DHT22;5844;51.496;6.788;2024-02-23T15:02:17;10.30;1.00
11577;DHT22;5844;51.496;6.788;2024-02-23T15:04:44;10.30;1.00
11577;DHT22;5844;51.496;6.788;2024-02-23T15:07:09;10.20;1.00
11577;DHT22;5844;51.496;6.788;2024-02-23T15:09:35;10.20;1.00
11577;DHT22;5844;51.496;6.788;2024-02-23T15:12:01;10.10;1.00
11577;DHT22;5844;51.496;6.788;2024-02-23T15:14:26;10.10;1.00
11577;DHT22;5844;51.496;6.788;2024-02-23T15:16:52;10.00;1.00
11577;DHT22;5844;51.496;6.788;2024-02-23T15:19:18;10.00;1.00
11577;DHT22;5844;51.496;6.788;2024-02-23T15:21:43;9.50;1.00
11577;DHT22;5844;51.496;6.788;2024-02-23T15:24:10;9.10;1.00
11577;DHT22;5844;51.496;6.788;2024-02-23T15:26:35;8.40;1.00
11577;DHT22;5844;51.496;6.788;2024-02-23T15:29:01;8.10;1.00
11577;DHT22;5844;51.496;6.788;2024-02-23T15:31:29;8.00;1.00
11577;DHT22;5844;51.496;6.788;2024-02-23T15:33:54;7.70;1.00
11577;DHT22;5844;51.496;6.788;2024-02-23T15:36:22;7.80;1.00
11577;DHT22;5844;51.496;6.788;2024-02-23T15:38:48;8.20;1.00
11577;DHT22;5844;51.496;6.788;2024-02-23T15:41:13;9.60;1.00
11577;DHT22;5844;51.496;6.788;2024-02-23T15:43:39;9.50;1.00
11577;DHT22;5844;51.496;6.788;2024-02-23T15:46:04;9.20;1.00
11577;DHT22;5844;51.496;6.788;2024-02-23T15:48:30;8.70;1.00
11577;DHT22;5844;51.496;6.788;2024-02-23T15:50:56;8.50;1.00
11577;DHT22;5844;51.496;6.788;2024-02-23T15:53:23;8.60;1.00
11577;DHT22;5844;51.496;6.788;2024-02-23T15:55:48;8.50;1.00
11577;DHT22;5844;51.496;6.788;2024-02-23T15:58:14;8.90;1.00
11577;DHT22;5844;51.496;6.788;2024-02-23T16:00:45;9.50;1.00
11577;DHT22;5844;51.496;6.788;2024-02-23T16:03:10;9.20;1.00
11577;DHT22;5844;51.496;6.788;2024-02-23T16:05:36;8.50;1.00
11577;DHT22;5844;51.496;6.788;2024-02-23T16:08:02;8.00;1.00
11577;DHT22;5844;51.496;6.788;2024-02-23T16:10:29;7.90;1.00
11577;DHT22;5844;51.496;6.788;2024-02-23T16:12:56;7.90;1.00
11577;DHT22;5844;51.496;6.788;2024-02-23T16:15:23;7.90;1.00
11577;DHT22;5844;51.496;6.788;2024-02-23T16:17:49;7.80;1.00